Time;durP1;ratioP1;P1;durP2;ratioP2;P2;SDS_P1;SDS_P2;PMS_P1;PMS_P2;Temp;Humidity;BMP_temperature;BMP_pressure;BME280_temperature;BME280_humidity;BME280_pressure;Samples;Min_cycle;Max_cycle;Signal;HPM_P1;HPM_P2
2023/06/08 00:01:02;;;;;;;17.80;7.55;;;;;;;16.91;59.37;100688.50;10117975;29;20052;-75
2023/06/08 00:06:05;;;;;;;18.85;8.38;;;;;;;16.81;59.41;100703.03;10125004;29;20045;-75
2023/06/08 00:11:07;;;;;;;16.33;7.93;;;;;;;16.65;59.81;100705.59;10120821;29;20052;-76
2023/06/08 00:16:13;;;;;;;15.93;8.13;;;;;;;16.61;60.23;100704.19;10119950;29;20049;-75
2023/06/08 00:21:16;;;;;;;16.90;7.55;;;;;;;16.50;60.93;100694.44;10125763;29;20041;-75
2023/06/08 00:26:19;;;;;;;18.20;8.25;;;;;;;16.30;61.36;100698.31;10120599;29;20282;-75
2023/06/08 00:31:25;;;;;;;18.15;9.30;;;;;;;16.30;61.57;100701.03;10122900;29;20068;-76
2023/06/08 00:36:27;;;;;;;20.15;9.32;;;;;;;16.27;61.64;100701.34;10116568;29;20045;-76
2023/06/08 00:41:30;;;;;;;19.10;8.50;;;;;;;16.19;61.97;100691.22;10120221;29;20835;-75
2023/06/08 00:46:36;;;;;;;16.50;8.73;;;;;;;16.04;62.02;100695.44;10123696;29;20055;-76
2023/06/08 00:51:42;;;;;;;18.75;8.93;;;;;;;16.04;62.29;100693.59;10114672;29;20097;-75
2023/06/08 00:56:48;;;;;;;20.65;8.43;;;;;;;16.10;62.87;100684.03;10118766;29;20428;-75
2023/06/08 01:01:57;;;;;;;24.30;9.10;;;;;;;16.09;62.72;100685.84;10111881;29;20052;-75
2023/06/08 01:07:14;;;;;;;19.98;8.93;;;;;;;16.03;61.98;100670.22;10114126;29;20059;-75
2023/06/08 01:12:29;;;;;;;15.18;8.82;;;;;;;16.04;62.38;100671.91;10113850;29;20048;-75
2023/06/08 01:17:40;;;;;;;16.67;9.55;;;;;;;16.01;62.36;100652.41;10125414;29;20043;-75
2023/06/08 01:23:03;;;;;;;23.73;10.30;;;;;;;15.89;62.61;100654.50;10106588;29;20409;-77
2023/06/08 01:28:13;;;;;;;20.70;9.23;;;;;;;15.86;62.88;100655.66;10114837;29;20037;-76
2023/06/08 01:33:19;;;;;;;14.85;8.93;;;;;;;15.86;62.83;100652.94;10120271;29;20083;-75
2023/06/08 01:38:33;;;;;;;20.63;9.63;;;;;;;15.85;63.09;100655.78;10119985;29;20055;-75
2023/06/08 01:43:41;;;;;;;16.60;8.93;;;;;;;15.82;63.15;100651.53;10109309;29;20424;-76
2023/06/08 01:48:46;;;;;;;21.50;9.48;;;;;;;15.83;63.11;100655.09;10115395;29;20053;-76
2023/06/08 01:53:49;;;;;;;25.80;10.70;;;;;;;15.75;62.78;100652.31;10114889;29;20044;-75
2023/06/08 01:58:53;;;;;;;27.58;11.82;;;;;;;15.71;62.98;100654.44;10116381;29;20045;-75
2023/06/08 02:03:56;;;;;;;25.48;12.73;;;;;;;15.69;63.25;100657.31;10115907;29;20538;-75
2023/06/08 02:09:01;;;;;;;29.02;12.18;;;;;;;15.55;63.23;100654.25;10122901;29;20055;-75
2023/06/08 02:14:05;;;;;;;20.77;11.50;;;;;;;15.58;63.33;100652.13;10120309;29;20493;-75
2023/06/08 02:19:12;;;;;;;18.05;10.77;;;;;;;15.61;63.39;100638.25;10126816;29;20055;-75
2023/06/08 02:24:17;;;;;;;17.05;10.70;;;;;;;15.57;63.34;100639.56;10137985;29;20092;-75
2023/06/08 02:29:22;;;;;;;24.08;10.18;;;;;;;15.46;63.63;100640.59;10129269;29;20049;-75
2023/06/08 02:34:25;;;;;;;23.88;10.35;;;;;;;15.34;64.00;100643.66;10126587;29;20443;-75
2023/06/08 02:39:28;;;;;;;27.90;11.60;;;;;;;15.26;64.38;100644.38;10123163;29;20045;-75
2023/06/08 02:44:33;;;;;;;24.15;12.75;;;;;;;15.08;67.00;100641.59;10127167;29;20051;-75
2023/06/08 02:49:36;;;;;;;24.83;12.30;;;;;;;14.91;68.74;100631.53;10126722;29;20048;-74
2023/06/08 02:54:39;;;;;;;22.75;12.27;;;;;;;14.80;69.81;100636.13;10121563;29;20045;-75
2023/06/08 02:59:43;;;;;;;25.60;12.13;;;;;;;14.71;69.36;100647.81;10125940;29;20135;-76
2023/06/08 03:04:46;;;;;;;25.88;12.73;;;;;;;14.57;69.19;100642.84;10122254;29;20036;-75
2023/06/08 03:09:51;;;;;;;28.77;13.15;;;;;;;14.49;69.35;100640.03;10118231;29;20112;-74
2023/06/08 03:14:59;;;;;;;30.55;14.20;;;;;;;14.44;69.88;100634.19;10112206;29;20096;-75
2023/06/08 03:20:05;;;;;;;32.40;13.07;;;;;;;14.41;69.32;100637.19;10143855;29;20126;-75
2023/06/08 03:25:15;;;;;;;30.02;13.15;;;;;;;14.37;68.81;100623.94;10120971;29;20517;-76
2023/06/08 03:30:19;;;;;;;24.33;13.38;;;;;;;14.35;68.92;100633.16;10119326;29;20166;-76
2023/06/08 03:35:28;;;;;;;25.10;13.07;;;;;;;14.30;68.16;100628.19;10112896;29;20037;-76
2023/06/08 03:40:54;;;;;;;23.90;13.07;;;;;;;14.23;68.19;100620.78;10115175;29;20415;-76
2023/06/08 03:45:58;;;;;;;33.50;13.50;;;;;;;14.19;67.77;100614.81;10123101;29;20049;-76
2023/06/08 03:51:01;;;;;;;25.92;12.43;;;;;;;14.14;68.07;100625.19;10121679;29;20093;-76
2023/06/08 03:56:08;;;;;;;21.55;13.02;;;;;;;14.30;67.69;100633.59;10123402;29;20048;-75
2023/06/08 04:01:16;;;;;;;22.40;13.27;;;;;;;14.38;67.54;100630.19;10121359;29;20060;-75
2023/06/08 04:06:19;;;;;;;26.63;12.55;;;;;;;14.46;67.32;100630.34;10122347;29;20049;-76
2023/06/08 04:11:22;;;;;;;26.50;13.50;;;;;;;14.23;66.82;100620.78;10122794;29;20056;-75
2023/06/08 04:16:27;;;;;;;30.83;13.27;;;;;;;14.22;66.78;100619.09;10119153;29;20508;-75
2023/06/08 04:21:33;;;;;;;27.30;14.38;;;;;;;14.27;66.71;100628.47;10122232;29;20390;-76
2023/06/08 04:26:42;;;;;;;31.13;15.32;;;;;;;14.20;66.57;100626.47;10116104;29;20093;-76
2023/06/08 04:31:47;;;;;;;27.40;14.35;;;;;;;14.01;66.87;100616.50;10120859;29;20045;-75
2023/06/08 04:36:50;;;;;;;32.78;14.43;;;;;;;14.27;66.89;100616.81;10119235;29;20595;-75
2023/06/08 04:41:55;;;;;;;23.88;13.80;;;;;;;14.43;65.88;100619.84;10121303;29;20143;-76
2023/06/08 04:46:59;;;;;;;27.45;12.77;;;;;;;14.48;66.11;100613.97;10122221;29;20037;-75
2023/06/08 04:52:06;;;;;;;23.88;12.98;;;;;;;14.40;65.99;100627.34;10148806;29;20068;-75
2023/06/08 04:57:10;;;;;;;28.63;14.18;;;;;;;14.49;66.14;100619.25;10116917;29;20505;-75
2023/06/08 05:02:14;;;;;;;27.83;13.57;;;;;;;14.58;66.16;100620.22;10116687;29;20531;-75
2023/06/08 05:07:18;;;;;;;28.98;14.00;;;;;;;14.80;65.71;100619.88;10119798;29;20746;-76
2023/06/08 05:12:21;;;;;;;22.90;13.82;;;;;;;14.91;64.65;100620.72;10116432;29;20049;-74
2023/06/08 05:17:25;;;;;;;24.88;13.57;;;;;;;14.82;65.03;100627.88;10114807;29;20048;-75
2023/06/08 05:22:28;;;;;;;25.40;13.60;;;;;;;14.92;64.72;100623.28;10111050;29;20064;-75
2023/06/08 05:27:31;;;;;;;26.70;13.57;;;;;;;14.91;64.97;100637.78;10110681;29;20053;-75
2023/06/08 05:32:35;;;;;;;28.10;14.93;;;;;;;14.89;64.86;100629.00;10108790;29;20096;-75
2023/06/08 05:37:38;;;;;;;25.05;14.63;;;;;;;14.94;65.10;100620.44;10111736;29;20072;-74
2023/06/08 05:42:41;;;;;;;31.50;15.32;;;;;;;14.86;67.03;100634.69;10114601;29;20127;-75
2023/06/08 05:47:45;;;;;;;27.83;14.85;;;;;;;14.75;67.33;100649.22;10123050;29;20036;-74
2023/06/08 05:52:48;;;;;;;28.48;14.95;;;;;;;14.58;67.70;100644.56;10121504;29;20072;-75
2023/06/08 05:57:51;;;;;;;35.45;16.10;;;;;;;14.53;67.68;100657.63;10123173;29;20068;-74
2023/06/08 06:02:56;;;;;;;29.02;14.23;;;;;;;14.50;67.54;100649.81;10130493;29;20776;-75
2023/06/08 06:07:59;;;;;;;31.77;15.55;;;;;;;14.47;68.14;100652.81;10129471;29;20459;-75
2023/06/08 06:13:01;;;;;;;31.15;15.93;;;;;;;14.30;68.96;100648.94;10128153;29;20033;-75
2023/06/08 06:18:06;;;;;;;33.65;15.95;;;;;;;14.50;68.23;100656.06;10124705;29;20508;-75
2023/06/08 06:23:09;;;;;;;33.05;15.85;;;;;;;14.80;67.37;100646.94;10123929;29;20048;-75
2023/06/08 06:28:14;;;;;;;31.80;15.70;;;;;;;15.43;66.75;100649.03;10092925;29;20049;-72
2023/06/08 06:33:18;;;;;;;29.33;14.70;;;;;;;15.69;65.38;100661.88;10083861;29;20417;-71
2023/06/08 06:38:21;;;;;;;27.73;14.27;;;;;;;16.05;64.80;100660.09;10083412;29;20079;-72
2023/06/08 06:43:24;;;;;;;25.63;14.80;;;;;;;16.08;64.36;100651.66;10083623;29;20538;-73
2023/06/08 06:48:36;;;;;;;26.98;14.80;;;;;;;16.18;63.79;100658.84;10081689;29;20520;-74
2023/06/08 06:53:39;;;;;;;30.92;15.32;;;;;;;16.00;63.89;100658.84;10082003;29;20041;-73
2023/06/08 06:58:44;;;;;;;28.48;14.50;;;;;;;15.85;66.36;100669.31;10080446;29;20393;-73
2023/06/08 07:03:51;;;;;;;27.80;15.38;;;;;;;15.75;67.44;100663.13;10084275;29;20139;-73
2023/06/08 07:08:54;;;;;;;28.20;14.70;;;;;;;15.82;67.81;100665.06;10080789;29;20052;-73
2023/06/08 07:13:57;;;;;;;26.58;14.73;;;;;;;16.28;66.13;100657.78;10078687;29;20048;-74
2023/06/08 07:19:01;;;;;;;30.25;15.55;;;;;;;16.69;63.39;100649.16;10078573;29;20057;-74
2023/06/08 07:24:06;;;;;;;25.58;14.30;;;;;;;16.95;61.14;100647.31;10077271;29;20613;-71
2023/06/08 07:29:29;;;;;;;27.10;15.00;;;;;;;17.31;60.56;100649.94;10081468;29;20048;-73
2023/06/08 07:34:33;;;;;;;30.30;16.08;;;;;;;17.75;59.71;100649.78;10084192;29;20045;-72
2023/06/08 07:39:36;;;;;;;26.50;15.32;;;;;;;18.37;58.06;100635.81;10082170;29;20056;-72
2023/06/08 07:44:39;;;;;;;27.38;16.58;;;;;;;18.52;57.02;100653.16;10078172;29;20192;-72
2023/06/08 07:49:43;;;;;;;23.15;14.45;;;;;;;18.52;56.66;100644.16;10110781;29;20148;-71
2023/06/08 07:54:46;;;;;;;25.65;15.82;;;;;;;18.42;57.00;100657.06;10086065;29;20488;-71
2023/06/08 07:59:49;;;;;;;23.08;14.23;;;;;;;18.88;56.58;100661.00;10085261;29;20071;-72
2023/06/08 08:04:54;;;;;;;26.20;14.77;;;;;;;19.05;55.33;100652.81;10083026;29;20056;-73
2023/06/08 08:09:56;;;;;;;24.65;16.40;;;;;;;18.90;55.58;100652.66;10083778;29;20056;-71
2023/06/08 08:15:01;;;;;;;29.30;17.27;;;;;;;18.47;56.67;100652.81;10092655;29;20057;-73
2023/06/08 08:20:07;;;;;;;30.13;17.00;;;;;;;18.25;57.09;100667.09;10079572;29;20053;-73
2023/06/08 08:25:11;;;;;;;27.23;16.85;;;;;;;18.29;57.18;100654.84;10089726;28;20056;-73
2023/06/08 08:30:15;;;;;;;29.00;16.90;;;;;;;18.22;57.79;100657.38;10089939;29;20055;-74
2023/06/08 08:35:19;;;;;;;33.22;16.27;;;;;;;18.31;57.77;100641.94;10080163;29;20048;-74
2023/06/08 08:40:23;;;;;;;30.88;16.98;;;;;;;18.65;57.06;100640.91;10075513;29;20056;-72
2023/06/08 08:45:31;;;;;;;29.70;17.70;;;;;;;18.80;56.76;100642.78;10083566;29;20645;-72
2023/06/08 08:50:36;;;;;;;27.50;16.42;;;;;;;18.87;56.45;100640.25;10077412;29;20060;-73
2023/06/08 08:55:41;;;;;;;25.98;17.70;;;;;;;18.85;56.18;100649.63;10073548;29;20079;-73
2023/06/08 09:00:48;;;;;;;28.13;16.38;;;;;;;18.69;57.30;100643.13;10077089;29;20073;-74
2023/06/08 09:05:53;;;;;;;26.15;16.20;;;;;;;18.75;57.20;100641.59;10082698;29;20041;-73
2023/06/08 09:11:04;;;;;;;27.17;17.30;;;;;;;19.08;57.17;100636.97;10084269;29;20068;-72
2023/06/08 09:16:11;;;;;;;27.15;16.35;;;;;;;19.63;55.67;100638.84;10084199;29;20064;-73
2023/06/08 09:21:23;;;;;;;25.20;16.20;;;;;;;20.45;54.68;100638.34;10081910;29;20056;-74
2023/06/08 09:26:32;;;;;;;27.75;16.60;;;;;;;22.59;50.91;100622.91;10083563;29;20048;-72
2023/06/08 09:31:39;;;;;;;27.88;15.52;;;;;;;22.91;48.08;100618.75;10073351;29;20044;-73
2023/06/08 09:36:49;;;;;;;24.52;16.73;;;;;;;23.20;47.89;100618.53;10072953;29;20087;-74
2023/06/08 09:41:58;;;;;;;21.88;15.07;;;;;;;24.49;46.23;100598.50;10069892;29;20056;-72
2023/06/08 09:47:18;;;;;;;23.25;14.95;;;;;;;25.21;44.42;100595.91;10080700;29;20055;-72
2023/06/08 09:52:24;;;;;;;21.40;15.13;;;;;;;24.92;44.22;100599.94;10078186;29;20591;-73
2023/06/08 09:57:30;;;;;;;20.88;14.82;;;;;;;24.89;44.56;100600.38;10080709;29;20095;-74
2023/06/08 10:02:36;;;;;;;22.73;15.05;;;;;;;24.59;45.90;100605.47;10078714;29;20045;-74
2023/06/08 10:07:44;;;;;;;17.45;13.18;;;;;;;25.12;45.30;100589.81;10080379;29;20049;-72
2023/06/08 10:12:48;;;;;;;20.38;14.07;;;;;;;25.34;44.42;100600.50;10082628;29;20059;-72
2023/06/08 10:17:51;;;;;;;21.75;13.35;;;;;;;25.69;44.50;100581.75;10072456;29;20049;-72
2023/06/08 10:22:58;;;;;;;20.15;13.68;;;;;;;25.82;44.20;100586.34;10068316;29;20072;-72
2023/06/08 10:28:05;;;;;;;20.92;14.35;;;;;;;26.41;43.74;100579.63;10082797;29;20056;-73
2023/06/08 10:33:09;;;;;;;24.25;13.25;;;;;;;26.76;42.10;100575.50;10081405;29;20064;-73
2023/06/08 10:38:15;;;;;;;17.98;13.20;;;;;;;27.03;42.85;100582.44;10077337;29;20060;-74
2023/06/08 10:43:23;;;;;;;20.10;13.15;;;;;;;27.07;42.38;100575.41;10084524;29;20044;-74
2023/06/08 10:48:46;;;;;;;17.55;12.50;;;;;;;27.33;41.75;100571.50;10084728;29;20052;-74
2023/06/08 10:53:58;;;;;;;12.73;10.65;;;;;;;27.70;42.08;100565.97;10085448;29;20052;-75
2023/06/08 10:59:01;;;;;;;20.13;13.27;;;;;;;27.77;41.47;100563.09;10085747;29;20049;-76
2023/06/08 11:04:05;;;;;;;12.50;10.27;;;;;;;28.14;41.91;100555.56;10091733;29;20116;-76
2023/06/08 11:09:15;;;;;;;14.50;10.15;;;;;;;28.73;40.40;100547.34;10086322;29;20052;-76
2023/06/08 11:14:22;;;;;;;15.35;10.85;;;;;;;29.10;39.39;100541.53;10091882;29;20468;-76
2023/06/08 11:19:29;;;;;;;15.07;11.23;;;;;;;29.68;38.21;100532.25;10093609;29;20505;-76
2023/06/08 11:24:33;;;;;;;13.00;10.68;;;;;;;30.33;37.98;100533.66;10089559;29;20059;-76
2023/06/08 11:29:36;;;;;;;21.52;10.07;;;;;;;28.86;38.86;100530.50;10082312;29;20048;-76
2023/06/08 11:34:40;;;;;;;14.15;9.68;;;;;;;27.38;41.27;100537.72;10085020;29;20052;-76
2023/06/08 11:39:46;;;;;;;13.05;9.43;;;;;;;26.85;41.89;100539.19;10081465;29;20504;-77
2023/06/08 11:44:49;;;;;;;13.48;10.77;;;;;;;27.13;41.94;100529.53;10074934;29;20036;-77
2023/06/08 11:49:52;;;;;;;13.55;8.60;;;;;;;27.25;41.33;100521.34;10076476;29;20542;-77
2023/06/08 11:54:59;;;;;;;12.68;8.68;;;;;;;27.33;41.09;100535.63;10076442;29;20148;-77
2023/06/08 12:00:06;;;;;;;16.05;9.52;;;;;;;27.22;40.99;100525.38;10075676;29;20053;-77
2023/06/08 12:05:15;;;;;;;18.30;10.10;;;;;;;27.87;41.52;100516.47;10072727;29;20061;-77
2023/06/08 12:10:19;;;;;;;18.02;9.52;;;;;;;28.19;39.74;100514.25;10073898;29;21470;-76
2023/06/08 12:15:22;;;;;;;11.57;8.25;;;;;;;27.61;40.56;100507.47;10075033;29;20055;-76
2023/06/08 12:20:30;;;;;;;11.13;8.40;;;;;;;28.39;39.90;100497.34;10078152;29;20424;-75
2023/06/08 12:25:35;;;;;;;13.50;9.90;;;;;;;28.91;38.50;100493.84;10077456;29;20666;-76
2023/06/08 12:30:40;;;;;;;13.02;8.95;;;;;;;28.90;39.10;100489.38;10078297;29;20049;-76
2023/06/08 12:35:42;;;;;;;13.07;8.40;;;;;;;28.31;39.11;100488.59;10077875;29;20076;-77
2023/06/08 12:40:48;;;;;;;13.55;8.82;;;;;;;27.90;40.29;100493.06;10078746;29;20057;-77
2023/06/08 12:45:51;;;;;;;10.93;7.93;;;;;;;29.29;38.56;100490.53;10108458;29;20065;-77
2023/06/08 12:50:57;;;;;;;12.43;7.82;;;;;;;29.65;37.46;100491.25;10080535;29;20049;-77
2023/06/08 12:56:01;;;;;;;10.48;7.65;;;;;;;29.98;37.19;100482.13;10080357;29;20049;-76
2023/06/08 13:01:04;;;;;;;13.65;9.48;;;;;;;30.18;37.10;100472.50;10080595;29;20057;-77
2023/06/08 13:06:07;;;;;;;11.88;8.68;;;;;;;30.41;36.65;100471.44;10086140;29;20063;-77
2023/06/08 13:11:11;;;;;;;11.30;8.00;;;;;;;30.97;36.38;100463.94;10085097;29;20044;-76
2023/06/08 13:16:15;;;;;;;10.25;7.97;;;;;;;31.09;36.46;100459.09;10085777;29;20060;-76
2023/06/08 13:21:18;;;;;;;8.55;6.13;;;;;;;30.94;33.98;100447.81;10080424;29;20718;-77
2023/06/08 13:26:23;;;;;;;6.03;5.10;;;;;;;30.57;32.46;100447.56;10079994;29;20517;-77
2023/06/08 13:31:27;;;;;;;8.02;6.45;;;;;;;30.22;34.38;100444.06;10120479;29;20056;-77
2023/06/08 13:36:30;;;;;;;10.52;6.30;;;;;;;30.69;33.55;100432.53;10119464;29;20040;-77
2023/06/08 13:41:35;;;;;;;7.78;6.57;;;;;;;30.86;34.32;100429.72;10124214;29;20941;-77
2023/06/08 13:46:38;;;;;;;7.43;6.53;;;;;;;30.73;33.69;100420.94;10125390;29;20064;-76
2023/06/08 13:51:42;;;;;;;9.45;6.80;;;;;;;30.74;35.27;100412.34;10120382;29;20068;-76
2023/06/08 13:56:46;;;;;;;9.48;6.28;;;;;;;31.14;34.50;100413.94;10122975;29;20048;-77
2023/06/08 14:01:49;;;;;;;8.32;6.63;;;;;;;30.54;33.95;100412.91;10130862;29;20950;-76
2023/06/08 14:06:52;;;;;;;10.93;6.18;;;;;;;30.51;34.17;100399.56;10121027;29;20055;-76
2023/06/08 14:11:57;;;;;;;7.10;6.20;;;;;;;30.82;33.98;100394.44;10123598;29;20429;-77
2023/06/08 14:17:00;;;;;;;8.43;7.43;;;;;;;30.98;33.99;100387.97;10123005;29;20064;-77
2023/06/08 14:22:04;;;;;;;8.57;6.38;;;;;;;31.03;34.19;100376.09;10121345;29;20069;-77
2023/06/08 14:27:08;;;;;;;7.78;6.25;;;;;;;30.74;33.34;100375.47;10123432;29;20036;-77
2023/06/08 14:32:11;;;;;;;7.65;6.43;;;;;;;31.21;33.05;100359.13;10124650;29;20044;-77
2023/06/08 14:37:14;;;;;;;11.18;6.65;;;;;;;30.56;34.22;100366.38;10121292;29;20044;-76
2023/06/08 14:42:18;;;;;;;9.40;6.75;;;;;;;30.89;33.66;100353.47;10132771;29;20056;-78
2023/06/08 14:47:21;;;;;;;5.93;5.43;;;;;;;31.28;33.58;100350.56;10128835;29;20075;-76
2023/06/08 14:52:24;;;;;;;12.93;6.18;;;;;;;31.27;32.40;100337.81;10130854;29;20052;-75
2023/06/08 14:57:29;;;;;;;10.52;6.57;;;;;;;31.06;31.93;100329.25;10135897;29;20051;-76
2023/06/08 15:02:32;;;;;;;8.48;6.35;;;;;;;30.80;31.93;100330.06;10137707;29;20056;-76
2023/06/08 15:07:36;;;;;;;8.07;6.78;;;;;;;30.00;33.58;100329.56;10138920;29;20048;-76
2023/06/08 15:12:41;;;;;;;6.72;5.68;;;;;;;30.31;33.87;100332.81;10136488;29;20048;-76
2023/06/08 15:17:44;;;;;;;9.18;5.53;;;;;;;30.88;32.27;100337.94;10138489;29;20043;-76
2023/06/08 15:22:47;;;;;;;7.80;5.18;;;;;;;31.09;32.40;100339.81;10132679;29;20040;-76
2023/06/08 15:27:51;;;;;;;7.95;5.43;;;;;;;30.64;31.69;100346.50;10133043;29;20076;-77
2023/06/08 15:32:54;;;;;;;6.10;5.50;;;;;;;30.11;32.10;100334.16;10130439;29;20456;-77
2023/06/08 15:37:57;;;;;;;9.35;5.22;;;;;;;30.65;31.79;100334.34;10123718;29;20041;-77
2023/06/08 15:43:02;;;;;;;8.18;5.80;;;;;;;30.85;31.99;100346.75;10123738;29;20479;-76
2023/06/08 15:48:05;;;;;;;8.40;4.65;;;;;;;30.87;31.36;100342.63;10118507;29;20052;-77
2023/06/08 15:53:08;;;;;;;9.98;5.60;;;;;;;31.08;31.84;100338.16;10116937;29;20481;-77
2023/06/08 15:58:12;;;;;;;7.30;4.88;;;;;;;30.96;31.70;100323.59;10118726;29;20132;-78
2023/06/08 16:03:15;;;;;;;6.22;4.80;;;;;;;31.05;31.54;100323.97;10117676;29;20527;-77
2023/06/08 16:08:20;;;;;;;6.55;4.78;;;;;;;31.41;31.20;100322.38;10119101;29;20056;-77
2023/06/08 16:13:24;;;;;;;5.25;4.72;;;;;;;31.48;30.43;100313.81;10110313;29;20064;-77
2023/06/08 16:18:27;;;;;;;8.02;5.13;;;;;;;31.10;30.71;100310.13;10106471;29;20076;-78
2023/06/08 16:23:30;;;;;;;6.30;4.88;;;;;;;30.88;31.76;100305.50;10110336;29;20045;-77
2023/06/08 16:28:34;;;;;;;7.25;5.10;;;;;;;31.37;30.68;100298.19;10117984;29;20481;-78
2023/06/08 16:33:37;;;;;;;5.47;4.97;;;;;;;32.69;29.03;100292.59;10121329;29;20048;-77
2023/06/08 16:38:42;;;;;;;5.72;4.88;;;;;;;35.65;26.26;100284.38;10116933;29;20052;-76
2023/06/08 16:43:46;;;;;;;5.63;4.65;;;;;;;36.07;24.54;100275.28;10116500;29;20053;-78
2023/06/08 16:48:49;;;;;;;6.00;4.50;;;;;;;33.03;28.46;100287.38;10126557;29;20051;-77
2023/06/08 16:53:52;;;;;;;7.72;4.53;;;;;;;31.87;29.48;100267.22;10127811;29;20173;-76
2023/06/08 16:58:56;;;;;;;5.85;4.53;;;;;;;34.91;26.81;100259.28;10128200;29;20827;-77
2023/06/08 17:03:59;;;;;;;5.45;4.68;;;;;;;36.57;24.72;100245.00;10128047;29;20123;-77
2023/06/08 17:09:02;;;;;;;5.22;4.72;;;;;;;36.79;24.04;100241.59;10124630;29;20111;-78
2023/06/08 17:14:08;;;;;;;5.63;4.80;;;;;;;37.92;23.23;100237.66;10127473;29;20060;-78
2023/06/08 17:19:11;;;;;;;7.65;6.55;;;;;;;37.98;22.91;100238.38;10127310;29;20092;-78
2023/06/08 17:24:14;;;;;;;5.00;4.40;;;;;;;38.30;22.55;100245.03;10120336;29;20563;-79
2023/06/08 17:29:19;;;;;;;4.97;4.25;;;;;;;38.75;22.45;100245.13;10111540;29;20044;-78
2023/06/08 17:34:27;;;;;;;6.43;4.55;;;;;;;38.58;22.62;100241.03;10116654;29;20072;-78
2023/06/08 17:39:30;;;;;;;6.93;4.82;;;;;;;38.05;22.52;100238.78;10123534;29;20152;-78
2023/06/08 17:44:34;;;;;;;5.50;4.45;;;;;;;36.98;23.48;100241.59;10125033;29;20057;-78
2023/06/08 17:49:38;;;;;;;4.90;4.40;;;;;;;34.61;26.36;100247.25;10118370;29;20404;-78
2023/06/08 17:54:41;;;;;;;5.18;4.78;;;;;;;30.69;30.48;100257.91;10121329;29;20044;-78
2023/06/08 17:59:46;;;;;;;6.43;4.95;;;;;;;28.15;34.18;100256.28;10122386;29;20052;-78
2023/06/08 18:04:48;;;;;;;7.00;5.90;;;;;;;26.82;36.74;100263.22;10116474;29;20044;-77
2023/06/08 18:09:51;;;;;;;8.00;5.47;;;;;;;26.16;38.09;100271.25;10134059;29;20060;-77
2023/06/08 18:14:56;;;;;;;7.55;6.32;;;;;;;25.77;39.26;100273.41;10122579;29;20040;-74
2023/06/08 18:20:00;;;;;;;7.50;5.88;;;;;;;25.47;40.13;100266.91;10121393;29;20040;-75
2023/06/08 18:25:03;;;;;;;6.90;6.20;;;;;;;25.24;41.01;100273.88;10126199;29;20093;-75
2023/06/08 18:30:10;;;;;;;10.02;6.97;;;;;;;25.03;41.73;100277.00;10122320;29;20120;-74
2023/06/08 18:35:14;;;;;;;8.73;7.10;;;;;;;24.86;42.48;100279.41;10121413;29;20048;-74
2023/06/08 18:40:17;;;;;;;8.52;6.78;;;;;;;24.75;42.88;100286.44;10123623;29;20037;-74
2023/06/08 18:45:21;;;;;;;8.85;7.45;;;;;;;24.60;43.67;100288.63;10125726;29;20207;-74
2023/06/08 18:50:24;;;;;;;10.20;8.52;;;;;;;24.46;44.25;100285.94;10125356;29;20032;-74
2023/06/08 18:55:27;;;;;;;14.15;7.90;;;;;;;24.37;44.94;100300.13;10125940;29;20477;-74
2023/06/08 19:00:35;;;;;;;10.73;9.63;;;;;;;24.30;45.34;100297.41;10116374;29;20048;-75
2023/06/08 19:05:38;;;;;;;10.48;8.55;;;;;;;24.21;45.49;100296.78;10113011;29;20052;-74
2023/06/08 19:10:41;;;;;;;9.48;7.43;;;;;;;24.11;45.14;100304.66;10120331;29;20500;-75
2023/06/08 19:15:45;;;;;;;11.07;8.38;;;;;;;23.90;45.49;100307.66;10119097;29;20459;-74
2023/06/08 19:20:48;;;;;;;10.73;8.20;;;;;;;23.76;45.60;100313.16;10129156;29;20040;-75
2023/06/08 19:25:51;;;;;;;12.85;7.82;;;;;;;23.65;45.61;100311.88;10129472;29;20033;-75
2023/06/08 19:30:55;;;;;;;8.88;7.88;;;;;;;23.54;45.02;100303.44;10121437;29;20036;-74
2023/06/08 19:35:58;;;;;;;10.57;8.10;;;;;;;23.52;45.57;100306.38;10120374;29;20056;-74
2023/06/08 19:41:01;;;;;;;7.90;6.80;;;;;;;23.42;45.22;100309.56;10125041;29;20045;-74
2023/06/08 19:46:06;;;;;;;8.05;7.25;;;;;;;23.26;45.67;100315.47;10128707;29;20097;-74
2023/06/08 19:51:12;;;;;;;10.75;6.90;;;;;;;23.06;45.89;100312.66;10119579;29;20055;-75
2023/06/08 19:56:16;;;;;;;12.35;7.88;;;;;;;22.93;46.37;100312.66;10118545;29;20057;-74
2023/06/08 20:01:20;;;;;;;8.50;7.18;;;;;;;22.74;47.31;100317.84;10117163;29;20054;-74
2023/06/08 20:06:23;;;;;;;7.97;7.28;;;;;;;22.61;46.98;100330.66;10121390;29;20037;-76
2023/06/08 20:11:26;;;;;;;10.13;8.07;;;;;;;22.42;48.06;100341.28;10132766;29;20089;-77
2023/06/08 20:16:30;;;;;;;9.52;7.15;;;;;;;22.23;49.25;100337.38;10124977;29;20568;-76
2023/06/08 20:21:33;;;;;;;8.65;7.70;;;;;;;22.03;48.94;100345.50;10123924;29;20480;-78
2023/06/08 20:26:39;;;;;;;9.20;7.50;;;;;;;21.90;49.12;100345.41;10130923;29;20469;-77
2023/06/08 20:31:43;;;;;;;9.57;7.30;;;;;;;21.78;49.91;100353.31;10123300;29;20036;-77
2023/06/08 20:36:47;;;;;;;8.38;7.40;;;;;;;21.67;50.13;100348.38;10127290;29;20045;-77
2023/06/08 20:41:51;;;;;;;8.73;7.45;;;;;;;21.58;50.15;100349.53;10130710;29;20099;-78
2023/06/08 20:46:55;;;;;;;8.23;6.55;;;;;;;21.53;50.05;100352.88;10123477;29;20056;-76
2023/06/08 20:51:58;;;;;;;8.30;6.82;;;;;;;21.44;50.07;100360.34;10123416;29;20071;-76
2023/06/08 20:57:03;;;;;;;9.48;7.57;;;;;;;21.30;50.45;100379.53;10122586;29;20535;-76
2023/06/08 21:02:09;;;;;;;11.48;7.00;;;;;;;21.33;50.39;100377.25;10112907;29;20456;-77
2023/06/08 21:07:12;;;;;;;10.20;7.70;;;;;;;21.27;51.08;100380.78;10122516;29;20424;-75
2023/06/08 21:12:16;;;;;;;10.00;7.82;;;;;;;21.21;51.40;100387.88;10131306;29;20048;-75
2023/06/08 21:17:20;;;;;;;12.73;7.93;;;;;;;20.88;53.60;100390.19;10122982;29;20044;-76
2023/06/08 21:22:23;;;;;;;15.80;8.23;;;;;;;20.75;53.93;100384.56;10127888;29;20059;-77
2023/06/08 21:27:26;;;;;;;11.68;8.02;;;;;;;20.60;53.31;100386.47;10122871;29;20052;-76
2023/06/08 21:32:31;;;;;;;12.40;8.45;;;;;;;20.62;53.45;100382.50;10119233;29;20140;-73
2023/06/08 21:37:34;;;;;;;14.10;8.18;;;;;;;20.56;53.69;100375.94;10121036;29;20045;-77
2023/06/08 21:42:37;;;;;;;8.98;8.18;;;;;;;20.52;53.78;100371.06;10117771;29;20045;-77
2023/06/08 21:47:42;;;;;;;11.02;8.63;;;;;;;20.27;54.18;100367.78;10116222;29;20093;-77
2023/06/08 21:52:46;;;;;;;11.88;8.98;;;;;;;20.15;54.57;100364.63;10117068;29;20052;-74
2023/06/08 21:57:49;;;;;;;13.00;8.77;;;;;;;20.05;54.87;100366.81;10117878;29;20044;-77
2023/06/08 22:02:53;;;;;;;11.43;8.52;;;;;;;20.04;55.03;100367.84;10114015;29;20036;-77
2023/06/08 22:07:56;;;;;;;12.43;8.93;;;;;;;19.99;54.92;100373.84;10118785;29;20052;-77
2023/06/08 22:12:59;;;;;;;10.50;8.80;;;;;;;19.91;55.43;100368.47;10118293;29;20040;-77
2023/06/08 22:18:05;;;;;;;9.82;8.48;;;;;;;19.83;55.70;100363.13;10124424;29;20501;-76
2023/06/08 22:23:09;;;;;;;10.88;9.60;;;;;;;19.64;56.04;100364.50;10121143;29;20045;-77
2023/06/08 22:28:14;;;;;;;12.63;9.18;;;;;;;19.61;56.41;100360.28;10122419;29;20119;-76
2023/06/08 22:33:20;;;;;;;10.00;8.82;;;;;;;19.54;57.12;100363.88;10127386;29;20460;-75
2023/06/08 22:38:22;;;;;;;13.02;9.15;;;;;;;19.50;57.49;100363.41;10131686;29;20064;-77
2023/06/08 22:43:25;;;;;;;12.50;9.05;;;;;;;19.47;57.20;100361.00;10109104;29;20525;-76
2023/06/08 22:48:30;;;;;;;10.13;9.10;;;;;;;19.27;57.57;100363.41;10125542;29;20060;-75
2023/06/08 22:53:34;;;;;;;9.73;8.73;;;;;;;19.25;57.96;100360.00;10152494;29;20048;-77
2023/06/08 22:58:37;;;;;;;11.68;9.93;;;;;;;19.23;57.87;100362.91;10119774;29;20040;-77